createdAt,value
2023-05-06T00:02:20.733Z,11.70
2023-05-06T00:04:48.821Z,12.00
2023-05-06T00:07:17.043Z,9.90
2023-05-06T00:09:44.919Z,8.50
2023-05-06T00:12:12.849Z,9.20
2023-05-06T00:14:41.352Z,13.60
2023-05-06T00:17:09.209Z,9.70
2023-05-06T00:19:37.134Z,9.90
2023-05-06T00:22:05.044Z,8.50
2023-05-06T00:24:32.940Z,10.80
2023-05-06T00:27:01.830Z,13.70
2023-05-06T00:29:30.408Z,12.00
2023-05-06T00:31:58.767Z,10.10
2023-05-06T00:34:26.701Z,12.40
2023-05-06T00:36:54.595Z,10.20
2023-05-06T00:39:22.553Z,11.60
2023-05-06T00:41:50.426Z,7.50
2023-05-06T00:44:18.270Z,9.10
2023-05-06T00:46:46.187Z,13.70
2023-05-06T00:49:15.062Z,8.50
2023-05-06T00:51:43.112Z,11.30
2023-05-06T00:54:11.970Z,8.10
2023-05-06T00:56:42.084Z,7.00
2023-05-06T00:59:10.090Z,11.40
2023-05-06T01:01:38.476Z,6.80
2023-05-06T01:04:07.463Z,6.90
2023-05-06T01:07:10.141Z,10.50
2023-05-06T01:09:55.863Z,5.70
2023-05-06T01:12:34.145Z,5.50
2023-05-06T01:15:14.924Z,7.60
2023-05-06T01:17:50.290Z,6.50
2023-05-06T01:20:21.236Z,7.20
2023-05-06T01:22:49.895Z,8.40
2023-05-06T01:25:20.500Z,5.60
2023-05-06T01:27:50.224Z,8.90
2023-05-06T01:30:21.103Z,6.20
2023-05-06T01:33:04.346Z,5.20
2023-05-06T01:36:03.218Z,9.30
2023-05-06T01:38:42.425Z,6.30
2023-05-06T01:41:16.947Z,5.40
2023-05-06T01:43:48.050Z,6.30
2023-05-06T01:46:22.235Z,6.40
2023-05-06T01:48:55.068Z,7.60
2023-05-06T01:51:24.861Z,9.40
2023-05-06T01:53:52.891Z,8.00
2023-05-06T01:56:20.799Z,8.00
2023-05-06T01:58:48.729Z,6.00
2023-05-06T02:01:16.743Z,4.00
2023-05-06T02:03:44.724Z,6.60
2023-05-06T02:06:12.828Z,6.50
2023-05-06T02:08:41.194Z,6.00
2023-05-06T02:11:11.264Z,5.50
2023-05-06T02:13:39.452Z,6.10
2023-05-06T02:16:09.070Z,8.90
2023-05-06T02:18:38.182Z,5.10
2023-05-06T02:21:06.189Z,6.10
2023-05-06T02:23:34.079Z,6.90
2023-05-06T02:26:02.012Z,7.10
2023-05-06T02:28:30.232Z,9.80
2023-05-06T02:30:58.833Z,6.70
2023-05-06T02:33:26.691Z,10.60
2023-05-06T02:35:54.579Z,7.40
2023-05-06T02:38:22.873Z,8.50
2023-05-06T02:40:50.732Z,7.70
2023-05-06T02:43:18.656Z,7.50
2023-05-06T02:45:46.577Z,7.10
2023-05-06T02:48:14.439Z,3.40
2023-05-06T02:50:42.263Z,7.30
2023-05-06T02:53:10.513Z,5.70
2023-05-06T02:55:38.976Z,7.10
2023-05-06T02:58:07.309Z,9.50
2023-05-06T03:00:35.329Z,5.20
2023-05-06T03:03:03.853Z,11.30
2023-05-06T03:05:31.827Z,7.30
2023-05-06T03:07:59.675Z,7.20
2023-05-06T03:10:28.309Z,6.70
2023-05-06T03:12:56.697Z,7.00
2023-05-06T03:15:24.655Z,10.00
2023-05-06T03:17:52.567Z,3.70
2023-05-06T03:20:21.368Z,5.60
2023-05-06T03:22:52.056Z,6.40
2023-05-06T03:25:21.191Z,6.30
2023-05-06T03:27:49.026Z,9.20
2023-05-06T03:30:20.091Z,5.50
2023-05-06T03:32:49.140Z,11.20
2023-05-06T03:35:22.931Z,6.40
2023-05-06T03:37:54.323Z,3.70
2023-05-06T03:40:22.974Z,9.80
2023-05-06T03:42:52.076Z,5.80
2023-05-06T03:45:20.502Z,9.50
2023-05-06T03:47:48.951Z,7.50
2023-05-06T03:50:17.691Z,5.60
2023-05-06T03:52:45.812Z,7.20
2023-05-06T03:55:13.767Z,6.30
2023-05-06T03:57:41.666Z,7.40
2023-05-06T04:00:10.552Z,5.40
2023-05-06T04:02:44.086Z,9.00
2023-05-06T04:05:16.812Z,7.30
2023-05-06T04:07:45.542Z,6.50
2023-05-06T04:10:13.456Z,6.40
2023-05-06T04:12:42.167Z,4.20
2023-05-06T04:15:14.561Z,4.20
2023-05-06T04:17:43.563Z,5.90
2023-05-06T04:20:12.474Z,7.50
2023-05-06T04:22:40.706Z,8.00
2023-05-06T04:25:09.666Z,12.50
2023-05-06T04:27:38.463Z,7.80
2023-05-06T04:30:08.541Z,8.40
2023-05-06T04:32:38.578Z,7.70
2023-05-06T04:35:08.097Z,5.40
2023-05-06T04:37:37.946Z,9.20
2023-05-06T04:40:13.734Z,8.00
2023-05-06T04:42:42.779Z,7.60
2023-05-06T04:45:15.651Z,6.00
2023-05-06T04:47:45.873Z,6.00
2023-05-06T04:50:14.626Z,9.30
2023-05-06T04:52:43.443Z,6.30
2023-05-06T04:55:12.489Z,5.20
2023-05-06T04:57:44.098Z,8.20
2023-05-06T05:00:14.742Z,6.00
2023-05-06T05:02:42.963Z,6.60
2023-05-06T05:05:11.389Z,6.40
2023-05-06T05:07:40.479Z,9.60
2023-05-06T05:10:10.303Z,11.10
2023-05-06T05:12:38.594Z,5.60
2023-05-06T05:15:07.312Z,7.90
2023-05-06T05:17:35.538Z,8.30
2023-05-06T05:20:05.710Z,8.70
2023-05-06T05:22:33.824Z,4.70
2023-05-06T05:25:02.178Z,7.50
2023-05-06T05:27:30.569Z,6.20
2023-05-06T05:29:58.856Z,9.70
2023-05-06T05:32:27.654Z,8.30
2023-05-06T05:34:55.584Z,11.60
2023-05-06T05:37:23.790Z,7.50
2023-05-06T05:39:52.264Z,7.60
2023-05-06T05:42:20.439Z,6.40
2023-05-06T05:44:48.848Z,6.80
2023-05-06T05:47:17.487Z,6.10
2023-05-06T05:49:45.888Z,7.30
2023-05-06T05:52:14.709Z,7.60
2023-05-06T05:54:43.560Z,8.90
2023-05-06T05:57:11.428Z,11.90
2023-05-06T05:59:40.382Z,7.70
2023-05-06T06:02:08.613Z,14.70
2023-05-06T06:04:36.583Z,7.30
2023-05-06T06:07:05.868Z,6.20
2023-05-06T06:09:36.947Z,10.20
2023-05-06T06:12:05.743Z,6.80
2023-05-06T06:14:34.508Z,8.10
2023-05-06T06:17:02.805Z,6.60
2023-05-06T06:19:31.348Z,10.10
2023-05-06T06:21:59.648Z,8.30
2023-05-06T06:24:27.684Z,8.40
2023-05-06T06:26:55.593Z,7.20
2023-05-06T06:29:23.485Z,8.40
2023-05-06T06:31:51.413Z,9.50
2023-05-06T06:34:19.447Z,14.20
2023-05-06T06:36:47.697Z,8.10
2023-05-06T06:39:15.650Z,9.50
2023-05-06T06:41:43.668Z,7.60
2023-05-06T06:44:11.545Z,8.30
2023-05-06T06:46:39.510Z,10.90
2023-05-06T06:49:07.353Z,10.60
2023-05-06T06:51:35.311Z,7.30
2023-05-06T06:54:03.440Z,7.20
2023-05-06T06:56:31.896Z,6.70
2023-05-06T06:58:59.878Z,9.20
2023-05-06T07:01:27.911Z,6.60
2023-05-06T07:03:56.196Z,3.90
2023-05-06T07:06:24.062Z,9.40
2023-05-06T07:08:51.924Z,5.40
2023-05-06T07:11:19.848Z,7.10
2023-05-06T07:13:47.713Z,6.90
2023-05-06T07:16:15.648Z,5.80
2023-05-06T07:18:43.494Z,6.70
2023-05-06T07:21:11.379Z,9.10
2023-05-06T07:23:39.326Z,7.80
2023-05-06T07:26:07.265Z,6.30
2023-05-06T07:28:35.155Z,5.20
2023-05-06T07:31:03.203Z,7.60
2023-05-06T07:33:40.750Z,8.80
2023-05-06T07:36:10.627Z,9.80
2023-05-06T07:38:38.570Z,6.50
2023-05-06T07:41:06.446Z,5.90
2023-05-06T07:43:34.338Z,7.30
2023-05-06T07:46:03.013Z,8.00
2023-05-06T07:48:35.351Z,8.70
2023-05-06T07:51:03.929Z,8.30
2023-05-06T07:53:31.879Z,10.70
2023-05-06T07:56:02.249Z,8.20
2023-05-06T07:58:31.725Z,9.20
2023-05-06T08:01:00.171Z,10.70
2023-05-06T08:03:28.235Z,6.30
2023-05-06T08:05:56.439Z,13.90
2023-05-06T08:08:28.160Z,8.30
2023-05-06T08:10:58.479Z,7.30
2023-05-06T08:13:28.050Z,7.20
2023-05-06T08:15:56.091Z,7.10
2023-05-06T08:18:24.157Z,5.70
2023-05-06T08:20:52.181Z,7.30
2023-05-06T08:23:20.734Z,7.40
2023-05-06T08:25:48.617Z,7.50
2023-05-06T08:28:16.921Z,8.40
2023-05-06T08:30:47.660Z,9.30
2023-05-06T08:33:15.620Z,8.90
2023-05-06T08:35:44.801Z,8.20
2023-05-06T08:38:12.739Z,9.60
2023-05-06T08:40:44.921Z,7.80
2023-05-06T08:43:14.705Z,8.70
2023-05-06T08:45:42.793Z,7.80
2023-05-06T08:48:11.267Z,11.20
2023-05-06T08:50:43.287Z,7.90
2023-05-06T08:53:13.576Z,8.30
2023-05-06T08:55:42.706Z,8.50
2023-05-06T08:58:15.711Z,11.00
2023-05-06T09:00:44.415Z,8.50
2023-05-06T09:03:12.427Z,8.20
2023-05-06T09:05:40.809Z,6.80
2023-05-06T09:08:08.751Z,9.60
2023-05-06T09:10:44.858Z,6.50
2023-05-06T09:13:15.869Z,7.70
2023-05-06T09:15:49.941Z,9.10
2023-05-06T09:18:18.080Z,5.00
2023-05-06T09:20:49.123Z,10.50
2023-05-06T09:23:18.324Z,7.20
2023-05-06T09:25:47.537Z,10.90
2023-05-06T09:28:15.518Z,7.50
2023-05-06T09:30:47.456Z,9.90
2023-05-06T09:33:16.165Z,12.90
2023-05-06T09:35:44.377Z,9.80
2023-05-06T09:38:12.348Z,6.20
2023-05-06T09:40:40.347Z,8.00
2023-05-06T09:43:09.981Z,7.80
2023-05-06T09:45:37.829Z,10.20
2023-05-06T09:48:08.336Z,10.30
2023-05-06T09:50:36.651Z,11.50
2023-05-06T09:53:06.074Z,9.70
2023-05-06T09:55:35.466Z,9.90
2023-05-06T09:58:05.465Z,10.10
2023-05-06T10:00:34.278Z,10.10
2023-05-06T10:03:04.449Z,8.60
2023-05-06T10:05:38.581Z,14.50
2023-05-06T10:08:09.040Z,8.80
2023-05-06T10:10:40.472Z,10.00
2023-05-06T10:13:10.500Z,7.10
2023-05-06T10:15:39.259Z,11.80
2023-05-06T10:18:09.718Z,8.80
2023-05-06T10:20:42.798Z,10.60
2023-05-06T10:23:29.087Z,12.50
2023-05-06T10:26:06.519Z,9.20
2023-05-06T10:28:41.197Z,7.70
2023-05-06T10:31:13.919Z,8.20
2023-05-06T10:36:21.524Z,7.00
2023-05-06T10:38:56.664Z,12.50
2023-05-06T10:41:27.888Z,12.60
2023-05-06T10:43:57.540Z,7.80
2023-05-06T10:46:28.236Z,11.80
2023-05-06T10:49:08.579Z,12.60
2023-05-06T10:51:43.688Z,10.40
2023-05-06T10:54:24.040Z,5.40
2023-05-06T10:56:52.571Z,12.20
2023-05-06T10:59:24.569Z,7.90
2023-05-06T11:02:08.381Z,11.10
2023-05-06T11:04:37.550Z,13.20
2023-05-06T11:07:22.323Z,15.20
2023-05-06T11:10:02.070Z,11.60
2023-05-06T11:12:53.504Z,10.40
2023-05-06T11:18:26.761Z,10.60
2023-05-06T11:21:05.129Z,14.30
2023-05-06T11:23:42.550Z,10.10
2023-05-06T11:26:12.554Z,11.60
2023-05-06T11:28:44.935Z,11.70
2023-05-06T11:31:14.163Z,11.40
2023-05-06T11:33:47.792Z,13.60
2023-05-06T11:36:18.569Z,12.80
2023-05-06T11:38:56.171Z,9.70
2023-05-06T11:41:24.209Z,13.30
2023-05-06T11:43:53.310Z,13.80
2023-05-06T11:46:24.116Z,12.40
2023-05-06T11:48:52.316Z,16.30
2023-05-06T11:51:24.603Z,13.60
2023-05-06T11:54:05.041Z,14.20
2023-05-06T11:56:54.348Z,14.70
2023-05-06T11:59:34.732Z,14.40
2023-05-06T12:02:07.766Z,18.70
2023-05-06T12:04:43.932Z,16.30
2023-05-06T12:07:14.485Z,8.20
2023-05-06T12:09:47.355Z,17.40
2023-05-06T12:12:18.977Z,14.70
2023-05-06T12:14:47.605Z,23.20
2023-05-06T12:17:16.518Z,25.70
2023-05-06T12:19:46.743Z,21.20
2023-05-06T12:22:18.040Z,27.90
2023-05-06T12:24:47.616Z,19.10
2023-05-06T12:27:33.119Z,22.80
2023-05-06T12:30:04.129Z,19.90
2023-05-06T12:32:32.114Z,19.60
2023-05-06T12:35:05.709Z,23.60
2023-05-06T12:37:33.802Z,26.20
2023-05-06T12:40:01.705Z,23.90
2023-05-06T12:42:29.617Z,23.50
2023-05-06T12:44:57.811Z,25.10
2023-05-06T12:47:26.273Z,24.10
2023-05-06T12:50:01.016Z,24.00
2023-05-06T12:52:30.090Z,19.70
2023-05-06T12:55:01.448Z,23.90
2023-05-06T12:57:29.362Z,27.60
2023-05-06T12:59:57.230Z,26.50
2023-05-06T13:02:25.317Z,31.40
2023-05-06T13:04:53.648Z,24.40
2023-05-06T13:07:22.319Z,24.70
2023-05-06T13:09:50.482Z,23.80
2023-05-06T13:12:18.416Z,28.10
2023-05-06T13:14:46.292Z,20.70
2023-05-06T13:17:14.841Z,29.70
2023-05-06T13:19:43.031Z,24.10
2023-05-06T13:22:11.152Z,22.10
2023-05-06T13:24:39.132Z,29.00
2023-05-06T13:27:07.184Z,26.50
2023-05-06T13:29:35.447Z,31.80
2023-05-06T13:32:05.149Z,27.00
2023-05-06T13:34:34.356Z,22.70
2023-05-06T13:37:02.239Z,25.40
2023-05-06T13:39:30.753Z,29.50
2023-05-06T13:41:58.659Z,21.90
2023-05-06T13:44:26.590Z,29.10
2023-05-06T13:46:54.562Z,26.60
2023-05-06T13:49:22.550Z,22.40
2023-05-06T13:51:50.467Z,28.30
2023-05-06T13:54:18.348Z,23.10
2023-05-06T13:56:46.189Z,27.70
2023-05-06T13:59:14.177Z,24.70
2023-05-06T14:01:42.824Z,27.00
2023-05-06T14:04:10.787Z,25.90
2023-05-06T14:06:38.775Z,17.10
2023-05-06T14:09:08.066Z,24.80
2023-05-06T14:11:36.080Z,23.20
2023-05-06T14:14:05.213Z,23.00
2023-05-06T14:16:33.815Z,24.40
2023-05-06T14:19:01.720Z,22.20
2023-05-06T14:21:29.610Z,20.90
2023-05-06T14:23:57.733Z,25.20
2023-05-06T14:26:26.798Z,24.50
2023-05-06T14:28:54.753Z,27.90
2023-05-06T14:31:23.466Z,23.90
2023-05-06T14:33:51.390Z,25.00
2023-05-06T14:36:20.211Z,28.10
2023-05-06T14:38:48.082Z,26.30
2023-05-06T14:41:16.222Z,23.60
2023-05-06T14:43:44.106Z,26.70
2023-05-06T14:46:14.451Z,24.10
2023-05-06T14:48:43.324Z,25.00
2023-05-06T14:51:11.399Z,23.20
2023-05-06T14:53:39.349Z,21.30
2023-05-06T14:56:10.581Z,24.80
2023-05-06T14:58:39.309Z,21.00
2023-05-06T15:01:07.374Z,21.90
2023-05-06T15:03:36.325Z,25.00
2023-05-06T15:06:04.551Z,22.50
2023-05-06T15:08:32.520Z,20.60
2023-05-06T15:11:03.087Z,22.10
2023-05-06T15:13:31.978Z,15.90
2023-05-06T15:15:59.980Z,15.90
2023-05-06T15:18:27.909Z,18.00
2023-05-06T15:20:58.587Z,19.90
2023-05-06T15:23:27.216Z,13.00
2023-05-06T15:25:58.003Z,19.10
2023-05-06T15:28:25.978Z,19.00
2023-05-06T15:30:53.861Z,20.70
2023-05-06T15:33:22.200Z,19.20
2023-05-06T15:35:50.351Z,14.70
2023-05-06T15:38:18.415Z,16.80
2023-05-06T15:40:51.464Z,17.40
2023-05-06T15:43:23.778Z,14.90
2023-05-06T15:45:52.554Z,20.20
2023-05-06T15:48:20.496Z,14.20
2023-05-06T15:50:48.362Z,15.30
2023-05-06T15:53:17.032Z,14.70
2023-05-06T15:55:49.506Z,15.00
2023-05-06T15:58:24.521Z,15.40
2023-05-06T16:00:52.483Z,17.30
2023-05-06T16:03:21.141Z,12.50
2023-05-06T16:05:49.309Z,12.30
2023-05-06T16:08:17.244Z,13.00
2023-05-06T16:10:46.131Z,12.10
2023-05-06T16:13:14.190Z,14.70
2023-05-06T16:15:42.190Z,15.60
2023-05-06T16:18:11.106Z,17.90
2023-05-06T16:20:39.193Z,15.80
2023-05-06T16:23:07.208Z,19.50
2023-05-06T16:25:37.750Z,18.90
2023-05-06T16:28:06.579Z,18.70
2023-05-06T16:30:35.415Z,18.10
2023-05-06T16:33:05.028Z,16.80
2023-05-06T16:35:33.066Z,15.70
2023-05-06T16:38:00.898Z,20.90
2023-05-06T16:40:31.079Z,17.70
2023-05-06T16:42:59.183Z,16.40
2023-05-06T16:45:27.029Z,19.10
2023-05-06T16:47:55.883Z,18.60
2023-05-06T16:50:23.785Z,13.80
2023-05-06T16:52:53.005Z,15.60
2023-05-06T16:55:21.902Z,19.20
2023-05-06T16:57:50.060Z,13.40
2023-05-06T17:00:18.582Z,14.80
2023-05-06T17:02:47.701Z,18.00
2023-05-06T17:05:16.134Z,17.00
2023-05-06T17:07:44.756Z,15.00
2023-05-06T17:10:12.927Z,14.70
2023-05-06T17:12:42.255Z,15.10
2023-05-06T17:15:11.403Z,15.20
2023-05-06T17:17:39.980Z,14.40
2023-05-06T17:20:10.632Z,16.60
2023-05-06T17:22:38.818Z,18.30
2023-05-06T17:25:07.488Z,17.80
2023-05-06T17:27:35.421Z,19.60
2023-05-06T17:30:03.690Z,14.90
2023-05-06T17:32:31.629Z,16.30
2023-05-06T17:34:59.596Z,14.70
2023-05-06T17:37:27.470Z,18.20
2023-05-06T17:39:55.417Z,18.70
2023-05-06T17:42:23.560Z,40.60
2023-05-06T17:44:51.490Z,16.20
2023-05-06T17:47:22.834Z,17.30
2023-05-06T17:49:53.021Z,14.90
2023-05-06T17:52:21.254Z,16.60
2023-05-06T17:55:01.047Z,16.60
2023-05-06T17:57:30.379Z,20.40
2023-05-06T17:59:58.312Z,17.50
2023-05-06T18:02:26.232Z,17.80
2023-05-06T18:04:54.208Z,14.30
2023-05-06T18:07:22.135Z,20.00
2023-05-06T18:09:51.986Z,18.60
2023-05-06T18:12:20.063Z,19.50
2023-05-06T18:14:48.070Z,18.20
2023-05-06T18:17:15.963Z,15.70
2023-05-06T18:19:43.851Z,19.60
2023-05-06T18:22:11.757Z,14.80
2023-05-06T18:24:39.764Z,16.40
2023-05-06T18:27:07.774Z,17.80
2023-05-06T18:29:35.761Z,18.10
2023-05-06T18:32:04.215Z,15.50
2023-05-06T18:34:32.231Z,19.30
2023-05-06T18:37:00.654Z,18.10
2023-05-06T18:39:28.553Z,18.10
2023-05-06T18:41:56.443Z,19.00
2023-05-06T18:44:24.518Z,16.60
2023-05-06T18:46:52.548Z,16.50
2023-05-06T18:49:20.355Z,15.40
2023-05-06T18:51:48.292Z,21.40
2023-05-06T18:54:16.343Z,18.20
2023-05-06T18:56:44.450Z,19.10
2023-05-06T18:59:13.111Z,18.60
2023-05-06T19:01:41.513Z,16.70
2023-05-06T19:04:09.543Z,15.10
2023-05-06T19:06:38.587Z,16.90
2023-05-06T19:09:08.092Z,18.60
2023-05-06T19:11:36.085Z,15.90
2023-05-06T19:14:04.530Z,16.60
2023-05-06T19:16:35.412Z,19.00
2023-05-06T19:19:06.937Z,16.80
2023-05-06T19:21:38.341Z,17.30
2023-05-06T19:24:06.489Z,16.90
2023-05-06T19:26:34.597Z,18.10
2023-05-06T19:29:03.389Z,14.40
2023-05-06T19:31:31.592Z,16.40
2023-05-06T19:33:59.504Z,16.20
2023-05-06T19:36:28.307Z,15.90
2023-05-06T19:38:56.309Z,18.20
2023-05-06T19:41:24.422Z,17.20
2023-05-06T19:43:52.296Z,20.10
2023-05-06T19:46:20.279Z,17.20
2023-05-06T19:48:48.561Z,23.30
2023-05-06T19:51:16.662Z,20.00
2023-05-06T19:53:44.802Z,18.90
2023-05-06T19:56:14.114Z,19.70
2023-05-06T19:58:42.226Z,18.50
2023-05-06T20:01:10.258Z,21.60
2023-05-06T20:03:39.059Z,15.00
2023-05-06T20:06:07.165Z,18.20
2023-05-06T20:08:35.371Z,17.70
2023-05-06T20:11:03.572Z,16.20
2023-05-06T20:13:31.798Z,17.70
2023-05-06T20:16:00.315Z,21.90
2023-05-06T20:18:28.262Z,16.90
2023-05-06T20:20:56.314Z,19.50
2023-05-06T20:23:24.147Z,20.20
2023-05-06T20:25:55.036Z,19.60
2023-05-06T20:28:23.368Z,15.80
2023-05-06T20:30:51.556Z,16.30
2023-05-06T20:33:19.445Z,17.90
2023-05-06T20:35:48.153Z,19.90
2023-05-06T20:38:16.913Z,16.20
2023-05-06T20:40:44.892Z,16.30
2023-05-06T20:43:12.867Z,15.60
2023-05-06T20:45:40.731Z,17.00
2023-05-06T20:48:08.630Z,16.50
2023-05-06T20:50:37.097Z,18.60
2023-05-06T20:53:05.064Z,18.20
2023-05-06T20:55:33.747Z,16.50
2023-05-06T20:58:01.853Z,12.80
2023-05-06T21:00:29.834Z,19.30
2023-05-06T21:02:57.776Z,19.10
2023-05-06T21:05:25.987Z,15.70
2023-05-06T21:07:53.917Z,15.10
2023-05-06T21:10:21.867Z,13.20
2023-05-06T21:12:50.854Z,14.40
2023-05-06T21:15:18.880Z,17.50
2023-05-06T21:17:47.267Z,19.40
2023-05-06T21:20:16.541Z,16.60
2023-05-06T21:22:44.514Z,13.10
2023-05-06T21:25:13.196Z,16.10
2023-05-06T21:27:41.389Z,11.90
2023-05-06T21:30:10.325Z,14.70
2023-05-06T21:32:38.278Z,17.40
2023-05-06T21:35:06.731Z,16.80
2023-05-06T21:37:35.841Z,17.40
2023-05-06T21:40:04.428Z,17.50
2023-05-06T21:42:32.399Z,11.80
2023-05-06T21:45:00.291Z,13.80
2023-05-06T21:47:28.215Z,13.40
2023-05-06T21:49:56.080Z,14.40
2023-05-06T21:52:24.724Z,12.60
2023-05-06T21:54:52.620Z,12.10
2023-05-06T21:57:20.531Z,15.40
2023-05-06T21:59:48.352Z,13.10
2023-05-06T22:02:16.368Z,13.20
2023-05-06T22:04:44.544Z,17.70
2023-05-06T22:07:12.565Z,13.00
2023-05-06T22:09:40.536Z,13.70
2023-05-06T22:12:11.513Z,14.40
2023-05-06T22:14:41.511Z,13.40
2023-05-06T22:17:10.849Z,11.70
2023-05-06T22:19:40.820Z,14.20
2023-05-06T22:22:09.195Z,11.70
2023-05-06T22:24:37.150Z,16.20
2023-05-06T22:27:05.351Z,10.20
2023-05-06T22:29:35.033Z,11.80
2023-05-06T22:32:03.187Z,12.20
2023-05-06T22:34:31.463Z,14.40
2023-05-06T22:37:00.943Z,8.90
2023-05-06T22:39:29.569Z,12.00
2023-05-06T22:41:57.461Z,11.60
2023-05-06T22:44:25.450Z,9.90
2023-05-06T22:46:54.717Z,12.80
2023-05-06T22:49:23.522Z,14.40
2023-05-06T22:51:52.187Z,12.30
2023-05-06T22:54:19.968Z,13.10
2023-05-06T22:56:47.912Z,12.70
2023-05-06T22:59:16.056Z,9.10
2023-05-06T23:01:44.018Z,12.50
2023-05-06T23:04:11.927Z,13.70
2023-05-06T23:06:40.048Z,11.10
2023-05-06T23:09:08.233Z,12.20
2023-05-06T23:11:36.071Z,10.70
2023-05-06T23:14:04.649Z,13.80
2023-05-06T23:16:33.166Z,14.10
2023-05-06T23:19:01.261Z,12.90
2023-05-06T23:21:29.196Z,12.20
2023-05-06T23:23:57.037Z,13.90
2023-05-06T23:26:25.180Z,9.80
2023-05-06T23:28:52.997Z,13.30
2023-05-06T23:31:20.933Z,11.10
2023-05-06T23:33:48.860Z,12.90
2023-05-06T23:36:17.631Z,13.60
2023-05-06T23:38:45.455Z,12.10
2023-05-06T23:41:13.396Z,12.20
2023-05-06T23:43:41.273Z,8.50
2023-05-06T23:46:09.149Z,14.20
2023-05-06T23:48:38.022Z,12.00
2023-05-06T23:51:05.937Z,11.30
2023-05-06T23:53:35.967Z,10.70
2023-05-06T23:56:04.488Z,10.10
2023-05-06T23:58:32.319Z,13.40
